sensor_id;sensor_type;location;lat;lon;timestamp;P1;durP1;ratioP1;P2;durP2;ratioP2
10979;SDS011;5543;51.734;8.744;2023-05-02T00:00:38;1.23;;;1.13;;
10979;SDS011;5543;51.734;8.744;2023-05-02T00:03:06;1.35;;;1.25;;
10979;SDS011;5543;51.734;8.744;2023-05-02T00:05:34;1.15;;;1.13;;
10979;SDS011;5543;51.734;8.744;2023-05-02T00:08:04;2.03;;;1.40;;
10979;SDS011;5543;51.734;8.744;2023-05-02T00:10:32;1.60;;;1.20;;
10979;SDS011;5543;51.734;8.744;2023-05-02T00:13:00;1.13;;;1.10;;
10979;SDS011;5543;51.734;8.744;2023-05-02T00:15:28;1.73;;;1.58;;
10979;SDS011;5543;51.734;8.744;2023-05-02T00:17:56;1.48;;;1.27;;
10979;SDS011;5543;51.734;8.744;2023-05-02T00:20:25;1.77;;;1.58;;
10979;SDS011;5543;51.734;8.744;2023-05-02T00:22:54;1.33;;;1.23;;
10979;SDS011;5543;51.734;8.744;2023-05-02T00:25:24;1.73;;;1.60;;
10979;SDS011;5543;51.734;8.744;2023-05-02T00:27:52;2.22;;;1.77;;
10979;SDS011;5543;51.734;8.744;2023-05-02T00:30:21;1.10;;;1.10;;
10979;SDS011;5543;51.734;8.744;2023-05-02T00:32:49;1.52;;;1.42;;
10979;SDS011;5543;51.734;8.744;2023-05-02T00:35:19;1.60;;;1.50;;
10979;SDS011;5543;51.734;8.744;2023-05-02T00:37:47;1.60;;;1.50;;
10979;SDS011;5543;51.734;8.744;2023-05-02T00:40:15;1.63;;;1.52;;
10979;SDS011;5543;51.734;8.744;2023-05-02T00:42:45;1.95;;;1.83;;
10979;SDS011;5543;51.734;8.744;2023-05-02T00:45:13;1.63;;;1.52;;
10979;SDS011;5543;51.734;8.744;2023-05-02T00:47:41;1.75;;;1.65;;
10979;SDS011;5543;51.734;8.744;2023-05-02T00:50:09;2.22;;;1.70;;
10979;SDS011;5543;51.734;8.744;2023-05-02T00:52:37;1.77;;;1.67;;
10979;SDS011;5543;51.734;8.744;2023-05-02T00:55:05;1.50;;;1.40;;
10979;SDS011;5543;51.734;8.744;2023-05-02T00:57:34;2.15;;;1.95;;
10979;SDS011;5543;51.734;8.744;2023-05-02T01:00:04;1.55;;;1.45;;
10979;SDS011;5543;51.734;8.744;2023-05-02T01:02:36;1.92;;;1.83;;
10979;SDS011;5543;51.734;8.744;2023-05-02T01:05:14;2.17;;;1.98;;
10979;SDS011;5543;51.734;8.744;2023-05-02T01:07:53;1.52;;;1.40;;
10979;SDS011;5543;51.734;8.744;2023-05-02T01:10:31;2.20;;;2.03;;
10979;SDS011;5543;51.734;8.744;2023-05-02T01:13:08;1.42;;;1.33;;
10979;SDS011;5543;51.734;8.744;2023-05-02T01:15:41;1.75;;;1.63;;
10979;SDS011;5543;51.734;8.744;2023-05-02T01:18:11;2.35;;;1.85;;
10979;SDS011;5543;51.734;8.744;2023-05-02T01:20:42;1.63;;;1.52;;
10979;SDS011;5543;51.734;8.744;2023-05-02T01:23:15;2.03;;;1.83;;
10979;SDS011;5543;51.734;8.744;2023-05-02T01:25:52;2.53;;;2.20;;
10979;SDS011;5543;51.734;8.744;2023-05-02T01:28:30;1.65;;;1.55;;
10979;SDS011;5543;51.734;8.744;2023-05-02T01:31:07;1.85;;;1.67;;
10979;SDS011;5543;51.734;8.744;2023-05-02T01:33:37;1.63;;;1.52;;
10979;SDS011;5543;51.734;8.744;2023-05-02T01:36:06;2.00;;;1.77;;
10979;SDS011;5543;51.734;8.744;2023-05-02T01:38:35;1.83;;;1.73;;
10979;SDS011;5543;51.734;8.744;2023-05-02T01:41:05;2.22;;;2.00;;
10979;SDS011;5543;51.734;8.744;2023-05-02T01:43:34;1.92;;;1.73;;
10979;SDS011;5543;51.734;8.744;2023-05-02T01:46:06;1.85;;;1.75;;
10979;SDS011;5543;51.734;8.744;2023-05-02T01:48:37;1.70;;;1.60;;
10979;SDS011;5543;51.734;8.744;2023-05-02T01:51:07;2.17;;;1.98;;
10979;SDS011;5543;51.734;8.744;2023-05-02T01:53:36;2.30;;;2.10;;
10979;SDS011;5543;51.734;8.744;2023-05-02T01:56:06;2.00;;;1.80;;
10979;SDS011;5543;51.734;8.744;2023-05-02T01:58:34;2.00;;;1.80;;
10979;SDS011;5543;51.734;8.744;2023-05-02T02:01:04;3.13;;;2.60;;
10979;SDS011;5543;51.734;8.744;2023-05-02T02:03:37;2.50;;;2.30;;
10979;SDS011;5543;51.734;8.744;2023-05-02T02:06:05;2.30;;;2.10;;
10979;SDS011;5543;51.734;8.744;2023-05-02T02:08:34;2.40;;;2.20;;
10979;SDS011;5543;51.734;8.744;2023-05-02T02:11:03;2.13;;;1.90;;
10979;SDS011;5543;51.734;8.744;2023-05-02T02:13:36;3.08;;;2.17;;
10979;SDS011;5543;51.734;8.744;2023-05-02T02:16:10;2.42;;;2.22;;
10979;SDS011;5543;51.734;8.744;2023-05-02T02:18:41;3.05;;;2.60;;
10979;SDS011;5543;51.734;8.744;2023-05-02T02:21:12;3.63;;;3.30;;
10979;SDS011;5543;51.734;8.744;2023-05-02T02:23:45;2.58;;;2.05;;
10979;SDS011;5543;51.734;8.744;2023-05-02T02:26:15;2.30;;;2.10;;
10979;SDS011;5543;51.734;8.744;2023-05-02T02:28:46;3.25;;;2.65;;
10979;SDS011;5543;51.734;8.744;2023-05-02T02:31:15;3.25;;;2.88;;
10979;SDS011;5543;51.734;8.744;2023-05-02T02:33:45;3.22;;;2.50;;
10979;SDS011;5543;51.734;8.744;2023-05-02T02:36:14;3.20;;;2.75;;
10979;SDS011;5543;51.734;8.744;2023-05-02T02:38:49;5.20;;;3.72;;
10979;SDS011;5543;51.734;8.744;2023-05-02T02:41:24;4.35;;;2.63;;
10979;SDS011;5543;51.734;8.744;2023-05-02T02:43:59;4.40;;;3.50;;
10979;SDS011;5543;51.734;8.744;2023-05-02T02:46:41;4.18;;;3.17;;
10979;SDS011;5543;51.734;8.744;2023-05-02T02:49:21;3.13;;;2.78;;
10979;SDS011;5543;51.734;8.744;2023-05-02T02:52:01;11.13;;;3.75;;
10979;SDS011;5543;51.734;8.744;2023-05-02T02:54:34;4.43;;;3.47;;
10979;SDS011;5543;51.734;8.744;2023-05-02T02:57:11;3.30;;;2.85;;
10979;SDS011;5543;51.734;8.744;2023-05-02T02:59:46;4.15;;;3.30;;
10979;SDS011;5543;51.734;8.744;2023-05-02T03:02:21;4.10;;;3.45;;
10979;SDS011;5543;51.734;8.744;2023-05-02T03:04:54;4.70;;;3.80;;
10979;SDS011;5543;51.734;8.744;2023-05-02T03:07:26;3.92;;;3.25;;
10979;SDS011;5543;51.734;8.744;2023-05-02T03:09:55;5.10;;;3.88;;
10979;SDS011;5543;51.734;8.744;2023-05-02T03:12:23;4.28;;;3.55;;
10979;SDS011;5543;51.734;8.744;2023-05-02T03:14:51;4.78;;;3.50;;
10979;SDS011;5543;51.734;8.744;2023-05-02T03:17:21;4.22;;;3.55;;
10979;SDS011;5543;51.734;8.744;2023-05-02T03:19:51;4.90;;;4.28;;
10979;SDS011;5543;51.734;8.744;2023-05-02T03:22:21;3.42;;;3.13;;
10979;SDS011;5543;51.734;8.744;2023-05-02T03:24:49;4.20;;;3.22;;
10979;SDS011;5543;51.734;8.744;2023-05-02T03:27:17;3.47;;;3.17;;
10979;SDS011;5543;51.734;8.744;2023-05-02T03:29:45;4.47;;;2.75;;
10979;SDS011;5543;51.734;8.744;2023-05-02T03:32:14;4.45;;;3.70;;
10979;SDS011;5543;51.734;8.744;2023-05-02T03:34:42;3.25;;;2.30;;
10979;SDS011;5543;51.734;8.744;2023-05-02T03:37:10;4.47;;;2.92;;
10979;SDS011;5543;51.734;8.744;2023-05-02T03:39:40;4.00;;;2.95;;
10979;SDS011;5543;51.734;8.744;2023-05-02T03:42:08;3.17;;;2.70;;
10979;SDS011;5543;51.734;8.744;2023-05-02T03:44:36;3.90;;;2.90;;
10979;SDS011;5543;51.734;8.744;2023-05-02T03:47:04;2.83;;;2.13;;
10979;SDS011;5543;51.734;8.744;2023-05-02T03:49:33;3.42;;;2.22;;
10979;SDS011;5543;51.734;8.744;2023-05-02T03:52:01;2.47;;;2.00;;
10979;SDS011;5543;51.734;8.744;2023-05-02T03:54:30;2.67;;;2.17;;
10979;SDS011;5543;51.734;8.744;2023-05-02T03:57:00;4.80;;;2.92;;
10979;SDS011;5543;51.734;8.744;2023-05-02T03:59:31;2.38;;;2.05;;
10979;SDS011;5543;51.734;8.744;2023-05-02T04:02:00;2.85;;;2.40;;
10979;SDS011;5543;51.734;8.744;2023-05-02T04:04:28;2.80;;;2.22;;
10979;SDS011;5543;51.734;8.744;2023-05-02T04:06:56;2.47;;;1.75;;
10979;SDS011;5543;51.734;8.744;2023-05-02T04:09:25;2.75;;;2.20;;
10979;SDS011;5543;51.734;8.744;2023-05-02T04:11:53;3.05;;;2.60;;
10979;SDS011;5543;51.734;8.744;2023-05-02T04:14:22;2.80;;;2.28;;
10979;SDS011;5543;51.734;8.744;2023-05-02T04:16:50;2.85;;;2.30;;
10979;SDS011;5543;51.734;8.744;2023-05-02T04:19:18;2.35;;;2.15;;
10979;SDS011;5543;51.734;8.744;2023-05-02T04:21:46;4.68;;;3.75;;
10979;SDS011;5543;51.734;8.744;2023-05-02T04:24:14;2.65;;;2.10;;
10979;SDS011;5543;51.734;8.744;2023-05-02T04:26:43;2.50;;;2.05;;
10979;SDS011;5543;51.734;8.744;2023-05-02T04:29:12;3.53;;;2.80;;
10979;SDS011;5543;51.734;8.744;2023-05-02T04:31:42;2.97;;;2.33;;
10979;SDS011;5543;51.734;8.744;2023-05-02T04:34:10;4.18;;;2.90;;
10979;SDS011;5543;51.734;8.744;2023-05-02T04:36:38;2.70;;;2.17;;
10979;SDS011;5543;51.734;8.744;2023-05-02T04:39:07;3.78;;;2.67;;
10979;SDS011;5543;51.734;8.744;2023-05-02T04:41:35;3.05;;;2.00;;
10979;SDS011;5543;51.734;8.744;2023-05-02T04:44:03;2.10;;;1.90;;
10979;SDS011;5543;51.734;8.744;2023-05-02T04:46:32;2.60;;;1.77;;
10979;SDS011;5543;51.734;8.744;2023-05-02T04:49:01;3.35;;;2.75;;
10979;SDS011;5543;51.734;8.744;2023-05-02T04:51:29;3.03;;;2.40;;
10979;SDS011;5543;51.734;8.744;2023-05-02T04:53:57;3.17;;;2.28;;
10979;SDS011;5543;51.734;8.744;2023-05-02T04:56:25;4.50;;;2.95;;
10979;SDS011;5543;51.734;8.744;2023-05-02T04:58:54;2.83;;;2.40;;
10979;SDS011;5543;51.734;8.744;2023-05-02T05:01:22;3.28;;;2.38;;
10979;SDS011;5543;51.734;8.744;2023-05-02T05:03:53;3.35;;;2.67;;
10979;SDS011;5543;51.734;8.744;2023-05-02T05:06:23;4.03;;;2.63;;
10979;SDS011;5543;51.734;8.744;2023-05-02T05:08:51;3.35;;;2.25;;
10979;SDS011;5543;51.734;8.744;2023-05-02T05:11:19;2.92;;;2.63;;
10979;SDS011;5543;51.734;8.744;2023-05-02T05:13:48;3.45;;;2.70;;
10979;SDS011;5543;51.734;8.744;2023-05-02T05:16:16;2.65;;;1.80;;
10979;SDS011;5543;51.734;8.744;2023-05-02T05:18:44;2.40;;;1.90;;
10979;SDS011;5543;51.734;8.744;2023-05-02T05:21:14;2.30;;;1.85;;
10979;SDS011;5543;51.734;8.744;2023-05-02T05:23:43;4.00;;;2.55;;
10979;SDS011;5543;51.734;8.744;2023-05-02T05:26:13;5.38;;;2.88;;
10979;SDS011;5543;51.734;8.744;2023-05-02T05:28:42;3.22;;;2.47;;
10979;SDS011;5543;51.734;8.744;2023-05-02T05:31:11;4.32;;;2.78;;
10979;SDS011;5543;51.734;8.744;2023-05-02T05:33:42;5.55;;;3.25;;
10979;SDS011;5543;51.734;8.744;2023-05-02T05:36:11;3.47;;;2.75;;
10979;SDS011;5543;51.734;8.744;2023-05-02T05:38:40;3.63;;;2.97;;
10979;SDS011;5543;51.734;8.744;2023-05-02T05:41:10;4.93;;;3.53;;
10979;SDS011;5543;51.734;8.744;2023-05-02T05:43:39;2.97;;;2.10;;
10979;SDS011;5543;51.734;8.744;2023-05-02T05:46:07;3.53;;;2.72;;
10979;SDS011;5543;51.734;8.744;2023-05-02T05:48:35;3.83;;;2.95;;
10979;SDS011;5543;51.734;8.744;2023-05-02T05:51:03;2.47;;;1.70;;
10979;SDS011;5543;51.734;8.744;2023-05-02T05:53:31;3.72;;;3.30;;
10979;SDS011;5543;51.734;8.744;2023-05-02T05:56:07;4.32;;;2.85;;
10979;SDS011;5543;51.734;8.744;2023-05-02T05:58:37;3.88;;;2.85;;
10979;SDS011;5543;51.734;8.744;2023-05-02T06:01:05;3.83;;;2.90;;
10979;SDS011;5543;51.734;8.744;2023-05-02T06:03:34;2.47;;;1.83;;
10979;SDS011;5543;51.734;8.744;2023-05-02T06:06:02;3.90;;;2.58;;
10979;SDS011;5543;51.734;8.744;2023-05-02T06:08:31;3.25;;;2.95;;
10979;SDS011;5543;51.734;8.744;2023-05-02T06:10:59;5.63;;;3.97;;
10979;SDS011;5543;51.734;8.744;2023-05-02T06:13:27;3.33;;;2.55;;
10979;SDS011;5543;51.734;8.744;2023-05-02T06:16:00;3.65;;;2.83;;
10979;SDS011;5543;51.734;8.744;2023-05-02T06:18:28;4.72;;;3.22;;
10979;SDS011;5543;51.734;8.744;2023-05-02T06:20:57;2.58;;;2.30;;
10979;SDS011;5543;51.734;8.744;2023-05-02T06:23:29;2.83;;;2.38;;
10979;SDS011;5543;51.734;8.744;2023-05-02T06:25:58;3.10;;;2.15;;
10979;SDS011;5543;51.734;8.744;2023-05-02T06:28:27;3.65;;;2.60;;
10979;SDS011;5543;51.734;8.744;2023-05-02T06:30:55;2.95;;;2.25;;
10979;SDS011;5543;51.734;8.744;2023-05-02T06:33:26;2.50;;;1.92;;
10979;SDS011;5543;51.734;8.744;2023-05-02T06:35:54;1.90;;;1.70;;
10979;SDS011;5543;51.734;8.744;2023-05-02T06:38:26;1.40;;;1.20;;
10979;SDS011;5543;51.734;8.744;2023-05-02T06:40:54;1.70;;;1.60;;
10979;SDS011;5543;51.734;8.744;2023-05-02T06:43:23;1.73;;;1.27;;
10979;SDS011;5543;51.734;8.744;2023-05-02T06:45:51;1.42;;;1.33;;
10979;SDS011;5543;51.734;8.744;2023-05-02T06:48:21;2.92;;;2.17;;
10979;SDS011;5543;51.734;8.744;2023-05-02T06:50:51;2.17;;;1.52;;
10979;SDS011;5543;51.734;8.744;2023-05-02T06:53:19;0.73;;;0.70;;
10979;SDS011;5543;51.734;8.744;2023-05-02T06:55:48;5.53;;;3.55;;
10979;SDS011;5543;51.734;8.744;2023-05-02T06:58:16;0.93;;;0.88;;
10979;SDS011;5543;51.734;8.744;2023-05-02T07:00:44;1.30;;;1.10;;
10979;SDS011;5543;51.734;8.744;2023-05-02T07:03:14;0.75;;;0.73;;
10979;SDS011;5543;51.734;8.744;2023-05-02T07:05:42;1.33;;;1.23;;
10979;SDS011;5543;51.734;8.744;2023-05-02T07:08:11;0.85;;;0.60;;
10979;SDS011;5543;51.734;8.744;2023-05-02T07:10:40;1.00;;;0.88;;
10979;SDS011;5543;51.734;8.744;2023-05-02T07:13:08;0.55;;;0.55;;
10979;SDS011;5543;51.734;8.744;2023-05-02T07:15:36;0.80;;;0.80;;
10979;SDS011;5543;51.734;8.744;2023-05-02T07:18:04;0.50;;;0.50;;
10979;SDS011;5543;51.734;8.744;2023-05-02T07:20:33;0.20;;;0.20;;
10979;SDS011;5543;51.734;8.744;2023-05-02T07:23:01;0.30;;;0.30;;
10979;SDS011;5543;51.734;8.744;2023-05-02T07:25:30;0.47;;;0.47;;
10979;SDS011;5543;51.734;8.744;2023-05-02T07:27:59;0.50;;;0.50;;
10979;SDS011;5543;51.734;8.744;2023-05-02T07:30:27;0.47;;;0.47;;
10979;SDS011;5543;51.734;8.744;2023-05-02T07:32:55;0.43;;;0.38;;
10979;SDS011;5543;51.734;8.744;2023-05-02T07:35:23;0.47;;;0.47;;
10979;SDS011;5543;51.734;8.744;2023-05-02T07:37:52;0.40;;;0.40;;
10979;SDS011;5543;51.734;8.744;2023-05-02T07:40:20;0.60;;;0.60;;
10979;SDS011;5543;51.734;8.744;2023-05-02T07:42:49;0.30;;;0.30;;
10979;SDS011;5543;51.734;8.744;2023-05-02T07:45:18;0.47;;;0.47;;
10979;SDS011;5543;51.734;8.744;2023-05-02T07:47:46;0.45;;;0.45;;
10979;SDS011;5543;51.734;8.744;2023-05-02T07:50:14;0.70;;;0.70;;
10979;SDS011;5543;51.734;8.744;2023-05-02T07:52:42;0.52;;;0.52;;
10979;SDS011;5543;51.734;8.744;2023-05-02T07:55:11;0.40;;;0.40;;
10979;SDS011;5543;51.734;8.744;2023-05-02T07:57:40;0.52;;;0.52;;
10979;SDS011;5543;51.734;8.744;2023-05-02T08:00:10;0.50;;;0.50;;
10979;SDS011;5543;51.734;8.744;2023-05-02T08:02:39;0.47;;;0.47;;
10979;SDS011;5543;51.734;8.744;2023-05-02T08:05:08;0.75;;;0.65;;
10979;SDS011;5543;51.734;8.744;2023-05-02T08:07:36;0.65;;;0.65;;
10979;SDS011;5543;51.734;8.744;2023-05-02T08:10:05;0.60;;;0.60;;
10979;SDS011;5543;51.734;8.744;2023-05-02T08:12:36;0.47;;;0.47;;
10979;SDS011;5543;51.734;8.744;2023-05-02T08:15:06;0.55;;;0.50;;
10979;SDS011;5543;51.734;8.744;2023-05-02T08:17:36;1.17;;;0.63;;
10979;SDS011;5543;51.734;8.744;2023-05-02T08:20:05;0.52;;;0.50;;
10979;SDS011;5543;51.734;8.744;2023-05-02T08:22:34;0.57;;;0.57;;
10979;SDS011;5543;51.734;8.744;2023-05-02T08:25:02;0.60;;;0.60;;
10979;SDS011;5543;51.734;8.744;2023-05-02T08:27:31;0.75;;;0.75;;
10979;SDS011;5543;51.734;8.744;2023-05-02T08:30:00;0.57;;;0.57;;
10979;SDS011;5543;51.734;8.744;2023-05-02T08:32:29;0.60;;;0.60;;
10979;SDS011;5543;51.734;8.744;2023-05-02T08:35:00;0.82;;;0.82;;
10979;SDS011;5543;51.734;8.744;2023-05-02T08:37:28;0.60;;;0.60;;
10979;SDS011;5543;51.734;8.744;2023-05-02T08:39:57;1.27;;;1.05;;
10979;SDS011;5543;51.734;8.744;2023-05-02T08:42:26;0.43;;;0.43;;
10979;SDS011;5543;51.734;8.744;2023-05-02T08:44:59;0.80;;;0.80;;
10979;SDS011;5543;51.734;8.744;2023-05-02T08:47:29;0.70;;;0.70;;
10979;SDS011;5543;51.734;8.744;2023-05-02T08:50:00;1.58;;;0.90;;
10979;SDS011;5543;51.734;8.744;2023-05-02T08:52:29;0.70;;;0.70;;
10979;SDS011;5543;51.734;8.744;2023-05-02T08:54:59;0.47;;;0.47;;
10979;SDS011;5543;51.734;8.744;2023-05-02T08:57:29;1.33;;;1.10;;
10979;SDS011;5543;51.734;8.744;2023-05-02T08:59:58;1.15;;;1.05;;
10979;SDS011;5543;51.734;8.744;2023-05-02T09:02:36;1.15;;;0.85;;
10979;SDS011;5543;51.734;8.744;2023-05-02T09:05:19;2.72;;;2.03;;
10979;SDS011;5543;51.734;8.744;2023-05-02T09:07:50;0.65;;;0.65;;
10979;SDS011;5543;51.734;8.744;2023-05-02T09:10:18;1.50;;;1.40;;
10979;SDS011;5543;51.734;8.744;2023-05-02T09:12:48;1.00;;;1.00;;
10979;SDS011;5543;51.734;8.744;2023-05-02T09:15:16;0.80;;;0.80;;
10979;SDS011;5543;51.734;8.744;2023-05-02T09:17:46;1.23;;;1.13;;
10979;SDS011;5543;51.734;8.744;2023-05-02T09:20:15;1.02;;;0.80;;
10979;SDS011;5543;51.734;8.744;2023-05-02T09:22:48;0.63;;;0.63;;
10979;SDS011;5543;51.734;8.744;2023-05-02T09:25:17;0.38;;;0.38;;
10979;SDS011;5543;51.734;8.744;2023-05-02T09:27:49;0.70;;;0.70;;
10979;SDS011;5543;51.734;8.744;2023-05-02T09:30:20;1.17;;;1.08;;
10979;SDS011;5543;51.734;8.744;2023-05-02T09:32:49;0.80;;;0.80;;
10979;SDS011;5543;51.734;8.744;2023-05-02T09:35:20;0.90;;;0.80;;
10979;SDS011;5543;51.734;8.744;2023-05-02T09:37:53;0.93;;;0.93;;
10979;SDS011;5543;51.734;8.744;2023-05-02T09:40:22;1.92;;;1.05;;
10979;SDS011;5543;51.734;8.744;2023-05-02T09:42:52;1.73;;;1.13;;
10979;SDS011;5543;51.734;8.744;2023-05-02T09:45:22;0.75;;;0.75;;
10979;SDS011;5543;51.734;8.744;2023-05-02T09:47:51;1.00;;;0.95;;
10979;SDS011;5543;51.734;8.744;2023-05-02T09:53:05;0.65;;;0.65;;
10979;SDS011;5543;51.734;8.744;2023-05-02T09:55:35;1.08;;;0.98;;
10979;SDS011;5543;51.734;8.744;2023-05-02T09:58:03;3.10;;;1.30;;
10979;SDS011;5543;51.734;8.744;2023-05-02T10:00:38;0.70;;;0.70;;
10979;SDS011;5543;51.734;8.744;2023-05-02T10:03:08;0.60;;;0.60;;
10979;SDS011;5543;51.734;8.744;2023-05-02T10:05:37;0.70;;;0.70;;
10979;SDS011;5543;51.734;8.744;2023-05-02T10:08:07;2.75;;;1.17;;
10979;SDS011;5543;51.734;8.744;2023-05-02T10:10:37;0.73;;;0.73;;
10979;SDS011;5543;51.734;8.744;2023-05-02T10:13:06;0.70;;;0.70;;
10979;SDS011;5543;51.734;8.744;2023-05-02T10:15:39;0.40;;;0.40;;
10979;SDS011;5543;51.734;8.744;2023-05-02T10:18:13;0.70;;;0.70;;
10979;SDS011;5543;51.734;8.744;2023-05-02T10:20:50;0.73;;;0.52;;
10979;SDS011;5543;51.734;8.744;2023-05-02T10:23:27;0.68;;;0.47;;
10979;SDS011;5543;51.734;8.744;2023-05-02T10:25:56;0.90;;;0.75;;
10979;SDS011;5543;51.734;8.744;2023-05-02T10:28:26;1.17;;;1.08;;
10979;SDS011;5543;51.734;8.744;2023-05-02T10:30:54;0.95;;;0.95;;
10979;SDS011;5543;51.734;8.744;2023-05-02T10:33:24;0.90;;;0.88;;
10979;SDS011;5543;51.734;8.744;2023-05-02T10:35:54;0.60;;;0.60;;
10979;SDS011;5543;51.734;8.744;2023-05-02T10:38:22;0.50;;;0.50;;
10979;SDS011;5543;51.734;8.744;2023-05-02T10:40:53;0.55;;;0.55;;
10979;SDS011;5543;51.734;8.744;2023-05-02T10:43:24;0.70;;;0.70;;
10979;SDS011;5543;51.734;8.744;2023-05-02T10:45:57;0.45;;;0.40;;
10979;SDS011;5543;51.734;8.744;2023-05-02T10:48:27;0.52;;;0.52;;
10979;SDS011;5543;51.734;8.744;2023-05-02T10:50:56;0.65;;;0.65;;
10979;SDS011;5543;51.734;8.744;2023-05-02T10:53:27;1.67;;;1.38;;
10979;SDS011;5543;51.734;8.744;2023-05-02T10:56:15;0.47;;;0.47;;
10979;SDS011;5543;51.734;8.744;2023-05-02T10:58:46;0.30;;;0.30;;
10979;SDS011;5543;51.734;8.744;2023-05-02T11:01:31;0.52;;;0.52;;
10979;SDS011;5543;51.734;8.744;2023-05-02T11:04:05;0.47;;;0.47;;
10979;SDS011;5543;51.734;8.744;2023-05-02T11:06:35;0.60;;;0.60;;
10979;SDS011;5543;51.734;8.744;2023-05-02T11:12:00;0.85;;;0.85;;
10979;SDS011;5543;51.734;8.744;2023-05-02T11:14:48;0.50;;;0.50;;
10979;SDS011;5543;51.734;8.744;2023-05-02T11:17:16;0.40;;;0.40;;
10979;SDS011;5543;51.734;8.744;2023-05-02T11:22:48;1.20;;;0.63;;
10979;SDS011;5543;51.734;8.744;2023-05-02T11:34:11;0.52;;;0.52;;
10979;SDS011;5543;51.734;8.744;2023-05-02T11:36:40;0.60;;;0.60;;
10979;SDS011;5543;51.734;8.744;2023-05-02T11:39:17;0.50;;;0.50;;
10979;SDS011;5543;51.734;8.744;2023-05-02T11:41:46;0.60;;;0.60;;
10979;SDS011;5543;51.734;8.744;2023-05-02T11:44:17;0.90;;;0.30;;
10979;SDS011;5543;51.734;8.744;2023-05-02T11:46:46;0.43;;;0.40;;
10979;SDS011;5543;51.734;8.744;2023-05-02T11:49:15;0.20;;;0.20;;
10979;SDS011;5543;51.734;8.744;2023-05-02T11:51:43;1.00;;;0.47;;
10979;SDS011;5543;51.734;8.744;2023-05-02T11:54:16;1.05;;;1.02;;
10979;SDS011;5543;51.734;8.744;2023-05-02T11:56:46;0.60;;;0.60;;
10979;SDS011;5543;51.734;8.744;2023-05-02T11:59:14;0.30;;;0.30;;
10979;SDS011;5543;51.734;8.744;2023-05-02T12:01:47;0.30;;;0.30;;
10979;SDS011;5543;51.734;8.744;2023-05-02T12:04:16;0.55;;;0.55;;
10979;SDS011;5543;51.734;8.744;2023-05-02T12:06:55;0.40;;;0.40;;
10979;SDS011;5543;51.734;8.744;2023-05-02T12:09:24;0.60;;;0.60;;
10979;SDS011;5543;51.734;8.744;2023-05-02T12:11:52;0.57;;;0.57;;
10979;SDS011;5543;51.734;8.744;2023-05-02T12:14:27;0.40;;;0.40;;
10979;SDS011;5543;51.734;8.744;2023-05-02T12:16:57;0.40;;;0.40;;
10979;SDS011;5543;51.734;8.744;2023-05-02T12:19:26;0.88;;;0.50;;
10979;SDS011;5543;51.734;8.744;2023-05-02T12:21:54;0.40;;;0.40;;
10979;SDS011;5543;51.734;8.744;2023-05-02T12:24:22;0.70;;;0.70;;
10979;SDS011;5543;51.734;8.744;2023-05-02T12:29:40;0.15;;;0.15;;
10979;SDS011;5543;51.734;8.744;2023-05-02T12:32:12;0.60;;;0.60;;
10979;SDS011;5543;51.734;8.744;2023-05-02T12:34:41;0.63;;;0.63;;
10979;SDS011;5543;51.734;8.744;2023-05-02T12:37:09;0.30;;;0.30;;
10979;SDS011;5543;51.734;8.744;2023-05-02T12:39:38;0.50;;;0.50;;
10979;SDS011;5543;51.734;8.744;2023-05-02T12:42:08;0.95;;;0.93;;
10979;SDS011;5543;51.734;8.744;2023-05-02T12:44:37;0.80;;;0.80;;
10979;SDS011;5543;51.734;8.744;2023-05-02T12:47:06;0.30;;;0.28;;
10979;SDS011;5543;51.734;8.744;2023-05-02T12:49:48;0.60;;;0.60;;
10979;SDS011;5543;51.734;8.744;2023-05-02T12:52:17;1.00;;;0.75;;
10979;SDS011;5543;51.734;8.744;2023-05-02T12:54:46;0.40;;;0.40;;
10979;SDS011;5543;51.734;8.744;2023-05-02T12:57:21;0.70;;;0.70;;
10979;SDS011;5543;51.734;8.744;2023-05-02T12:59:51;0.60;;;0.60;;
10979;SDS011;5543;51.734;8.744;2023-05-02T13:02:20;0.30;;;0.30;;
10979;SDS011;5543;51.734;8.744;2023-05-02T13:04:50;0.50;;;0.50;;
10979;SDS011;5543;51.734;8.744;2023-05-02T13:07:19;0.90;;;0.77;;
10979;SDS011;5543;51.734;8.744;2023-05-02T13:09:47;0.60;;;0.60;;
10979;SDS011;5543;51.734;8.744;2023-05-02T13:12:23;0.85;;;0.85;;
10979;SDS011;5543;51.734;8.744;2023-05-02T13:14:51;0.93;;;0.73;;
10979;SDS011;5543;51.734;8.744;2023-05-02T13:17:19;1.02;;;0.93;;
10979;SDS011;5543;51.734;8.744;2023-05-02T13:19:48;0.77;;;0.77;;
10979;SDS011;5543;51.734;8.744;2023-05-02T13:22:28;0.52;;;0.52;;
10979;SDS011;5543;51.734;8.744;2023-05-02T13:24:56;0.77;;;0.77;;
10979;SDS011;5543;51.734;8.744;2023-05-02T13:27:24;0.60;;;0.55;;
10979;SDS011;5543;51.734;8.744;2023-05-02T13:29:53;0.85;;;0.63;;
10979;SDS011;5543;51.734;8.744;2023-05-02T13:32:21;0.55;;;0.55;;
10979;SDS011;5543;51.734;8.744;2023-05-02T13:34:49;1.70;;;1.60;;
10979;SDS011;5543;51.734;8.744;2023-05-02T13:37:17;0.52;;;0.52;;
10979;SDS011;5543;51.734;8.744;2023-05-02T13:39:47;0.63;;;0.55;;
10979;SDS011;5543;51.734;8.744;2023-05-02T13:42:15;2.60;;;1.42;;
10979;SDS011;5543;51.734;8.744;2023-05-02T13:44:43;1.00;;;1.00;;
10979;SDS011;5543;51.734;8.744;2023-05-02T13:47:11;0.30;;;0.30;;
10979;SDS011;5543;51.734;8.744;2023-05-02T13:49:40;0.52;;;0.52;;
10979;SDS011;5543;51.734;8.744;2023-05-02T13:52:08;1.95;;;1.23;;
10979;SDS011;5543;51.734;8.744;2023-05-02T13:54:36;0.55;;;0.55;;
10979;SDS011;5543;51.734;8.744;2023-05-02T13:57:06;0.60;;;0.60;;
10979;SDS011;5543;51.734;8.744;2023-05-02T13:59:34;0.95;;;0.93;;
10979;SDS011;5543;51.734;8.744;2023-05-02T14:02:02;0.88;;;0.70;;
10979;SDS011;5543;51.734;8.744;2023-05-02T14:04:31;1.77;;;1.40;;
10979;SDS011;5543;51.734;8.744;2023-05-02T14:06:59;0.57;;;0.57;;
10979;SDS011;5543;51.734;8.744;2023-05-02T14:09:28;0.73;;;0.73;;
10979;SDS011;5543;51.734;8.744;2023-05-02T14:12:10;0.80;;;0.80;;
10979;SDS011;5543;51.734;8.744;2023-05-02T14:14:38;1.02;;;0.75;;
10979;SDS011;5543;51.734;8.744;2023-05-02T14:17:06;0.65;;;0.65;;
10979;SDS011;5543;51.734;8.744;2023-05-02T14:19:35;2.55;;;0.90;;
10979;SDS011;5543;51.734;8.744;2023-05-02T14:22:03;0.57;;;0.57;;
10979;SDS011;5543;51.734;8.744;2023-05-02T14:24:31;1.45;;;1.10;;
10979;SDS011;5543;51.734;8.744;2023-05-02T14:26:59;0.77;;;0.77;;
10979;SDS011;5543;51.734;8.744;2023-05-02T14:29:29;0.75;;;0.70;;
10979;SDS011;5543;51.734;8.744;2023-05-02T14:31:57;0.52;;;0.52;;
10979;SDS011;5543;51.734;8.744;2023-05-02T14:34:26;0.65;;;0.65;;
10979;SDS011;5543;51.734;8.744;2023-05-02T14:36:54;0.55;;;0.55;;
10979;SDS011;5543;51.734;8.744;2023-05-02T14:39:22;0.38;;;0.38;;
10979;SDS011;5543;51.734;8.744;2023-05-02T14:41:52;0.60;;;0.60;;
10979;SDS011;5543;51.734;8.744;2023-05-02T14:44:21;0.73;;;0.73;;
10979;SDS011;5543;51.734;8.744;2023-05-02T14:46:54;0.85;;;0.52;;
10979;SDS011;5543;51.734;8.744;2023-05-02T14:49:22;0.70;;;0.70;;
10979;SDS011;5543;51.734;8.744;2023-05-02T14:51:50;0.85;;;0.50;;
10979;SDS011;5543;51.734;8.744;2023-05-02T14:54:25;0.90;;;0.50;;
10979;SDS011;5543;51.734;8.744;2023-05-02T14:56:53;1.15;;;0.90;;
10979;SDS011;5543;51.734;8.744;2023-05-02T14:59:22;0.50;;;0.50;;
10979;SDS011;5543;51.734;8.744;2023-05-02T15:01:50;0.65;;;0.65;;
10979;SDS011;5543;51.734;8.744;2023-05-02T15:04:20;0.80;;;0.80;;
10979;SDS011;5543;51.734;8.744;2023-05-02T15:06:49;0.82;;;0.82;;
10979;SDS011;5543;51.734;8.744;2023-05-02T15:09:20;0.70;;;0.70;;
10979;SDS011;5543;51.734;8.744;2023-05-02T15:11:48;1.25;;;1.10;;
10979;SDS011;5543;51.734;8.744;2023-05-02T15:14:16;1.33;;;1.23;;
10979;SDS011;5543;51.734;8.744;2023-05-02T15:16:45;1.48;;;1.25;;
10979;SDS011;5543;51.734;8.744;2023-05-02T15:19:13;0.70;;;0.70;;
10979;SDS011;5543;51.734;8.744;2023-05-02T15:21:42;0.70;;;0.70;;
10979;SDS011;5543;51.734;8.744;2023-05-02T15:24:11;0.65;;;0.65;;
10979;SDS011;5543;51.734;8.744;2023-05-02T15:26:39;1.67;;;0.70;;
10979;SDS011;5543;51.734;8.744;2023-05-02T15:29:07;0.60;;;0.60;;
10979;SDS011;5543;51.734;8.744;2023-05-02T15:31:36;0.80;;;0.80;;
10979;SDS011;5543;51.734;8.744;2023-05-02T15:34:04;0.68;;;0.65;;
10979;SDS011;5543;51.734;8.744;2023-05-02T15:36:32;0.50;;;0.50;;